sensor_id;sensor_type;location;lat;lon;timestamp;P1;durP1;ratioP1;P2;durP2;ratioP2
4724;SDS011;2376;53.544;10.226;2023-08-12T00:00:45;3.73;;;3.43;;
4724;SDS011;2376;53.544;10.226;2023-08-12T00:03:12;3.30;;;3.10;;
4724;SDS011;2376;53.544;10.226;2023-08-12T00:05:38;5.17;;;3.00;;
4724;SDS011;2376;53.544;10.226;2023-08-12T00:08:06;3.00;;;2.90;;
4724;SDS011;2376;53.544;10.226;2023-08-12T00:10:34;3.93;;;3.40;;
4724;SDS011;2376;53.544;10.226;2023-08-12T00:13:00;3.70;;;3.50;;
4724;SDS011;2376;53.544;10.226;2023-08-12T00:15:27;4.53;;;3.27;;
4724;SDS011;2376;53.544;10.226;2023-08-12T00:17:54;4.93;;;3.67;;
4724;SDS011;2376;53.544;10.226;2023-08-12T00:20:21;3.87;;;3.43;;
4724;SDS011;2376;53.544;10.226;2023-08-12T00:22:47;3.63;;;3.33;;
4724;SDS011;2376;53.544;10.226;2023-08-12T00:25:14;2.90;;;2.70;;
4724;SDS011;2376;53.544;10.226;2023-08-12T00:27:42;3.23;;;3.13;;
4724;SDS011;2376;53.544;10.226;2023-08-12T00:30:09;3.07;;;2.87;;
4724;SDS011;2376;53.544;10.226;2023-08-12T00:32:36;4.80;;;4.53;;
4724;SDS011;2376;53.544;10.226;2023-08-12T00:35:03;4.20;;;2.97;;
4724;SDS011;2376;53.544;10.226;2023-08-12T00:37:30;6.17;;;4.53;;
4724;SDS011;2376;53.544;10.226;2023-08-12T00:39:57;4.13;;;3.70;;
4724;SDS011;2376;53.544;10.226;2023-08-12T00:42:24;3.60;;;3.30;;
4724;SDS011;2376;53.544;10.226;2023-08-12T00:44:52;5.70;;;3.30;;
4724;SDS011;2376;53.544;10.226;2023-08-12T00:47:18;3.23;;;3.10;;
4724;SDS011;2376;53.544;10.226;2023-08-12T00:49:46;3.23;;;3.03;;
4724;SDS011;2376;53.544;10.226;2023-08-12T00:52:13;3.63;;;3.40;;
4724;SDS011;2376;53.544;10.226;2023-08-12T00:54:41;3.13;;;2.93;;
4724;SDS011;2376;53.544;10.226;2023-08-12T00:57:07;3.77;;;3.37;;
4724;SDS011;2376;53.544;10.226;2023-08-12T00:59:34;4.70;;;3.90;;
4724;SDS011;2376;53.544;10.226;2023-08-12T01:02:04;3.43;;;3.23;;
4724;SDS011;2376;53.544;10.226;2023-08-12T01:04:31;3.70;;;3.50;;
4724;SDS011;2376;53.544;10.226;2023-08-12T01:06:58;5.23;;;3.70;;
4724;SDS011;2376;53.544;10.226;2023-08-12T01:09:24;4.00;;;3.70;;
4724;SDS011;2376;53.544;10.226;2023-08-12T01:11:53;3.40;;;3.20;;
4724;SDS011;2376;53.544;10.226;2023-08-12T01:14:27;3.60;;;3.30;;
4724;SDS011;2376;53.544;10.226;2023-08-12T01:17:07;4.17;;;3.80;;
4724;SDS011;2376;53.544;10.226;2023-08-12T01:19:38;8.80;;;3.17;;
4724;SDS011;2376;53.544;10.226;2023-08-12T01:22:06;10.43;;;3.23;;
4724;SDS011;2376;53.544;10.226;2023-08-12T01:24:37;3.67;;;3.47;;
4724;SDS011;2376;53.544;10.226;2023-08-12T01:27:05;3.53;;;3.33;;
4724;SDS011;2376;53.544;10.226;2023-08-12T01:29:32;2.93;;;2.70;;
4724;SDS011;2376;53.544;10.226;2023-08-12T01:32:01;3.63;;;3.00;;
4724;SDS011;2376;53.544;10.226;2023-08-12T01:34:35;3.70;;;3.40;;
4724;SDS011;2376;53.544;10.226;2023-08-12T01:37:08;4.53;;;3.57;;
4724;SDS011;2376;53.544;10.226;2023-08-12T01:39:38;6.63;;;3.30;;
4724;SDS011;2376;53.544;10.226;2023-08-12T01:42:08;3.57;;;3.27;;
4724;SDS011;2376;53.544;10.226;2023-08-12T01:44:35;3.13;;;2.93;;
4724;SDS011;2376;53.544;10.226;2023-08-12T01:47:02;4.50;;;3.40;;
4724;SDS011;2376;53.544;10.226;2023-08-12T01:49:28;3.30;;;3.10;;
4724;SDS011;2376;53.544;10.226;2023-08-12T01:51:55;4.37;;;4.07;;
4724;SDS011;2376;53.544;10.226;2023-08-12T01:54:22;3.53;;;3.33;;
4724;SDS011;2376;53.544;10.226;2023-08-12T01:56:50;4.37;;;3.63;;
4724;SDS011;2376;53.544;10.226;2023-08-12T01:59:17;3.73;;;2.80;;
4724;SDS011;2376;53.544;10.226;2023-08-12T02:01:43;3.87;;;3.60;;
4724;SDS011;2376;53.544;10.226;2023-08-12T02:04:10;3.30;;;3.00;;
4724;SDS011;2376;53.544;10.226;2023-08-12T02:06:37;3.77;;;3.37;;
4724;SDS011;2376;53.544;10.226;2023-08-12T02:09:03;4.00;;;3.80;;
4724;SDS011;2376;53.544;10.226;2023-08-12T02:11:30;4.33;;;3.93;;
4724;SDS011;2376;53.544;10.226;2023-08-12T02:13:58;3.23;;;2.93;;
4724;SDS011;2376;53.544;10.226;2023-08-12T02:16:25;3.50;;;3.30;;
4724;SDS011;2376;53.544;10.226;2023-08-12T02:18:52;3.30;;;3.10;;
4724;SDS011;2376;53.544;10.226;2023-08-12T02:21:18;3.50;;;3.30;;
4724;SDS011;2376;53.544;10.226;2023-08-12T02:23:45;4.97;;;3.37;;
4724;SDS011;2376;53.544;10.226;2023-08-12T02:26:11;5.67;;;3.70;;
4724;SDS011;2376;53.544;10.226;2023-08-12T02:28:38;4.13;;;3.83;;
4724;SDS011;2376;53.544;10.226;2023-08-12T02:31:06;5.33;;;3.77;;
4724;SDS011;2376;53.544;10.226;2023-08-12T02:33:33;3.53;;;3.40;;
4724;SDS011;2376;53.544;10.226;2023-08-12T02:36:00;4.10;;;3.77;;
4724;SDS011;2376;53.544;10.226;2023-08-12T02:38:26;4.83;;;3.07;;
4724;SDS011;2376;53.544;10.226;2023-08-12T02:40:53;3.57;;;3.07;;
4724;SDS011;2376;53.544;10.226;2023-08-12T02:43:20;4.20;;;3.30;;
4724;SDS011;2376;53.544;10.226;2023-08-12T02:45:47;3.57;;;3.37;;
4724;SDS011;2376;53.544;10.226;2023-08-12T02:48:15;5.13;;;3.60;;
4724;SDS011;2376;53.544;10.226;2023-08-12T02:50:42;3.37;;;3.07;;
4724;SDS011;2376;53.544;10.226;2023-08-12T02:53:09;7.17;;;3.33;;
4724;SDS011;2376;53.544;10.226;2023-08-12T02:55:35;4.00;;;3.80;;
4724;SDS011;2376;53.544;10.226;2023-08-12T02:58:03;4.03;;;3.73;;
4724;SDS011;2376;53.544;10.226;2023-08-12T03:00:30;4.10;;;3.90;;
4724;SDS011;2376;53.544;10.226;2023-08-12T03:02:56;4.20;;;3.90;;
4724;SDS011;2376;53.544;10.226;2023-08-12T03:05:24;5.27;;;4.07;;
4724;SDS011;2376;53.544;10.226;2023-08-12T03:07:51;3.97;;;3.77;;
4724;SDS011;2376;53.544;10.226;2023-08-12T03:10:18;5.23;;;3.43;;
4724;SDS011;2376;53.544;10.226;2023-08-12T03:12:45;3.60;;;3.30;;
4724;SDS011;2376;53.544;10.226;2023-08-12T03:15:12;4.33;;;3.37;;
4724;SDS011;2376;53.544;10.226;2023-08-12T03:17:38;4.17;;;3.53;;
4724;SDS011;2376;53.544;10.226;2023-08-12T03:20:07;3.70;;;3.50;;
4724;SDS011;2376;53.544;10.226;2023-08-12T03:22:35;3.73;;;3.53;;
4724;SDS011;2376;53.544;10.226;2023-08-12T03:25:03;3.50;;;3.30;;
4724;SDS011;2376;53.544;10.226;2023-08-12T03:27:30;3.73;;;3.50;;
4724;SDS011;2376;53.544;10.226;2023-08-12T03:29:57;6.53;;;4.57;;
4724;SDS011;2376;53.544;10.226;2023-08-12T03:32:24;4.40;;;4.10;;
4724;SDS011;2376;53.544;10.226;2023-08-12T03:34:51;4.90;;;4.07;;
4724;SDS011;2376;53.544;10.226;2023-08-12T03:37:18;4.30;;;4.10;;
4724;SDS011;2376;53.544;10.226;2023-08-12T03:39:46;7.50;;;3.50;;
4724;SDS011;2376;53.544;10.226;2023-08-12T03:42:13;4.17;;;3.77;;
4724;SDS011;2376;53.544;10.226;2023-08-12T03:44:41;4.37;;;4.07;;
4724;SDS011;2376;53.544;10.226;2023-08-12T03:47:08;3.77;;;3.00;;
4724;SDS011;2376;53.544;10.226;2023-08-12T03:49:35;4.90;;;3.97;;
4724;SDS011;2376;53.544;10.226;2023-08-12T03:52:01;4.13;;;3.73;;
4724;SDS011;2376;53.544;10.226;2023-08-12T03:54:28;4.50;;;4.23;;
4724;SDS011;2376;53.544;10.226;2023-08-12T03:56:56;4.03;;;3.83;;
4724;SDS011;2376;53.544;10.226;2023-08-12T03:59:23;4.90;;;3.57;;
4724;SDS011;2376;53.544;10.226;2023-08-12T04:01:49;4.60;;;4.07;;
4724;SDS011;2376;53.544;10.226;2023-08-12T04:04:16;3.80;;;3.60;;
4724;SDS011;2376;53.544;10.226;2023-08-12T04:06:43;3.90;;;3.60;;
4724;SDS011;2376;53.544;10.226;2023-08-12T04:09:09;4.40;;;4.00;;
4724;SDS011;2376;53.544;10.226;2023-08-12T04:11:36;5.53;;;4.40;;
4724;SDS011;2376;53.544;10.226;2023-08-12T04:14:04;4.73;;;4.40;;
4724;SDS011;2376;53.544;10.226;2023-08-12T04:16:31;5.30;;;4.43;;
4724;SDS011;2376;53.544;10.226;2023-08-12T04:18:57;3.87;;;3.67;;
4724;SDS011;2376;53.544;10.226;2023-08-12T04:21:24;4.53;;;3.70;;
4724;SDS011;2376;53.544;10.226;2023-08-12T04:23:51;4.50;;;4.10;;
4724;SDS011;2376;53.544;10.226;2023-08-12T04:26:17;4.13;;;3.93;;
4724;SDS011;2376;53.544;10.226;2023-08-12T04:28:44;3.47;;;3.23;;
4724;SDS011;2376;53.544;10.226;2023-08-12T04:31:12;4.40;;;4.00;;
4724;SDS011;2376;53.544;10.226;2023-08-12T04:33:39;4.10;;;3.90;;
4724;SDS011;2376;53.544;10.226;2023-08-12T04:36:06;4.13;;;3.80;;
4724;SDS011;2376;53.544;10.226;2023-08-12T04:38:33;5.90;;;4.20;;
4724;SDS011;2376;53.544;10.226;2023-08-12T04:41:00;4.97;;;4.17;;
4724;SDS011;2376;53.544;10.226;2023-08-12T04:43:27;4.30;;;4.00;;
4724;SDS011;2376;53.544;10.226;2023-08-12T04:45:54;9.20;;;3.83;;
4724;SDS011;2376;53.544;10.226;2023-08-12T04:48:22;4.13;;;3.83;;
4724;SDS011;2376;53.544;10.226;2023-08-12T04:50:48;4.07;;;3.80;;
4724;SDS011;2376;53.544;10.226;2023-08-12T04:53:15;4.10;;;3.80;;
4724;SDS011;2376;53.544;10.226;2023-08-12T04:55:41;4.00;;;3.70;;
4724;SDS011;2376;53.544;10.226;2023-08-12T04:58:08;5.77;;;4.10;;
4724;SDS011;2376;53.544;10.226;2023-08-12T05:00:35;6.20;;;4.30;;
4724;SDS011;2376;53.544;10.226;2023-08-12T05:03:02;3.90;;;3.70;;
4724;SDS011;2376;53.544;10.226;2023-08-12T05:05:30;5.27;;;4.83;;
4724;SDS011;2376;53.544;10.226;2023-08-12T05:07:57;4.30;;;4.10;;
4724;SDS011;2376;53.544;10.226;2023-08-12T05:10:23;5.77;;;4.23;;
4724;SDS011;2376;53.544;10.226;2023-08-12T05:12:50;5.20;;;4.10;;
4724;SDS011;2376;53.544;10.226;2023-08-12T05:15:19;4.40;;;4.00;;
4724;SDS011;2376;53.544;10.226;2023-08-12T05:17:45;4.20;;;4.00;;
4724;SDS011;2376;53.544;10.226;2023-08-12T05:20:12;4.50;;;4.20;;
4724;SDS011;2376;53.544;10.226;2023-08-12T05:22:40;3.70;;;3.40;;
4724;SDS011;2376;53.544;10.226;2023-08-12T05:25:07;3.70;;;3.50;;
4724;SDS011;2376;53.544;10.226;2023-08-12T05:27:34;4.10;;;3.90;;
4724;SDS011;2376;53.544;10.226;2023-08-12T05:30:01;4.47;;;4.10;;
4724;SDS011;2376;53.544;10.226;2023-08-12T05:32:27;4.33;;;3.93;;
4724;SDS011;2376;53.544;10.226;2023-08-12T05:34:54;4.30;;;4.00;;
4724;SDS011;2376;53.544;10.226;2023-08-12T05:37:21;6.20;;;4.10;;
4724;SDS011;2376;53.544;10.226;2023-08-12T05:39:49;3.93;;;3.67;;
4724;SDS011;2376;53.544;10.226;2023-08-12T05:42:16;3.90;;;3.60;;
4724;SDS011;2376;53.544;10.226;2023-08-12T05:44:43;6.13;;;4.50;;
4724;SDS011;2376;53.544;10.226;2023-08-12T05:47:09;4.07;;;3.77;;
4724;SDS011;2376;53.544;10.226;2023-08-12T05:49:36;3.73;;;3.50;;
4724;SDS011;2376;53.544;10.226;2023-08-12T05:52:03;5.53;;;4.60;;
4724;SDS011;2376;53.544;10.226;2023-08-12T05:54:30;4.53;;;3.77;;
4724;SDS011;2376;53.544;10.226;2023-08-12T05:56:58;3.57;;;3.27;;
4724;SDS011;2376;53.544;10.226;2023-08-12T05:59:25;5.47;;;4.20;;
4724;SDS011;2376;53.544;10.226;2023-08-12T06:01:52;4.77;;;3.90;;
4724;SDS011;2376;53.544;10.226;2023-08-12T06:04:19;3.80;;;3.50;;
4724;SDS011;2376;53.544;10.226;2023-08-12T06:06:46;4.37;;;3.97;;
4724;SDS011;2376;53.544;10.226;2023-08-12T06:09:13;4.63;;;4.33;;
4724;SDS011;2376;53.544;10.226;2023-08-12T06:11:39;4.13;;;3.93;;
4724;SDS011;2376;53.544;10.226;2023-08-12T06:14:07;4.73;;;4.43;;
4724;SDS011;2376;53.544;10.226;2023-08-12T06:16:34;4.50;;;4.10;;
4724;SDS011;2376;53.544;10.226;2023-08-12T06:19:01;4.80;;;4.50;;
4724;SDS011;2376;53.544;10.226;2023-08-12T06:21:28;5.10;;;4.60;;
4724;SDS011;2376;53.544;10.226;2023-08-12T06:23:55;5.17;;;4.77;;
4724;SDS011;2376;53.544;10.226;2023-08-12T06:26:22;5.10;;;4.70;;
4724;SDS011;2376;53.544;10.226;2023-08-12T06:28:48;4.90;;;4.40;;
4724;SDS011;2376;53.544;10.226;2023-08-12T06:31:16;4.90;;;4.50;;
4724;SDS011;2376;53.544;10.226;2023-08-12T06:33:43;5.67;;;5.10;;
4724;SDS011;2376;53.544;10.226;2023-08-12T06:36:10;4.80;;;4.40;;
4724;SDS011;2376;53.544;10.226;2023-08-12T06:38:37;5.67;;;5.30;;
4724;SDS011;2376;53.544;10.226;2023-08-12T06:41:04;4.70;;;4.37;;
4724;SDS011;2376;53.544;10.226;2023-08-12T06:43:31;5.17;;;4.77;;
4724;SDS011;2376;53.544;10.226;2023-08-12T06:45:57;7.70;;;5.30;;
4724;SDS011;2376;53.544;10.226;2023-08-12T06:48:25;5.47;;;4.97;;
4724;SDS011;2376;53.544;10.226;2023-08-12T06:50:52;6.23;;;5.73;;
4724;SDS011;2376;53.544;10.226;2023-08-12T06:53:19;5.20;;;4.90;;
4724;SDS011;2376;53.544;10.226;2023-08-12T06:55:46;5.77;;;5.17;;
4724;SDS011;2376;53.544;10.226;2023-08-12T06:58:12;4.83;;;4.53;;
4724;SDS011;2376;53.544;10.226;2023-08-12T07:00:39;5.87;;;5.17;;
4724;SDS011;2376;53.544;10.226;2023-08-12T07:03:06;5.67;;;5.10;;
4724;SDS011;2376;53.544;10.226;2023-08-12T07:05:34;5.73;;;5.43;;
4724;SDS011;2376;53.544;10.226;2023-08-12T07:08:01;6.33;;;5.90;;
4724;SDS011;2376;53.544;10.226;2023-08-12T07:10:27;5.83;;;5.40;;
4724;SDS011;2376;53.544;10.226;2023-08-12T07:12:54;5.27;;;4.97;;
4724;SDS011;2376;53.544;10.226;2023-08-12T07:15:21;5.37;;;5.07;;
4724;SDS011;2376;53.544;10.226;2023-08-12T07:17:47;7.67;;;5.30;;
4724;SDS011;2376;53.544;10.226;2023-08-12T07:20:14;6.93;;;6.33;;
4724;SDS011;2376;53.544;10.226;2023-08-12T07:22:42;6.50;;;6.10;;
4724;SDS011;2376;53.544;10.226;2023-08-12T07:25:09;7.60;;;7.00;;
4724;SDS011;2376;53.544;10.226;2023-08-12T07:27:36;8.17;;;6.23;;
4724;SDS011;2376;53.544;10.226;2023-08-12T07:30:03;6.97;;;5.97;;
4724;SDS011;2376;53.544;10.226;2023-08-12T07:32:30;7.10;;;6.50;;
4724;SDS011;2376;53.544;10.226;2023-08-12T07:34:57;8.43;;;6.23;;
4724;SDS011;2376;53.544;10.226;2023-08-12T07:37:23;6.47;;;5.93;;
4724;SDS011;2376;53.544;10.226;2023-08-12T07:39:51;7.67;;;7.07;;
4724;SDS011;2376;53.544;10.226;2023-08-12T07:42:19;9.00;;;6.73;;
4724;SDS011;2376;53.544;10.226;2023-08-12T07:44:46;8.37;;;7.03;;
4724;SDS011;2376;53.544;10.226;2023-08-12T07:47:13;7.97;;;7.30;;
4724;SDS011;2376;53.544;10.226;2023-08-12T07:49:40;7.50;;;6.90;;
4724;SDS011;2376;53.544;10.226;2023-08-12T07:52:07;7.60;;;6.90;;
4724;SDS011;2376;53.544;10.226;2023-08-12T07:54:33;7.63;;;6.93;;
4724;SDS011;2376;53.544;10.226;2023-08-12T07:57:02;8.40;;;7.60;;
4724;SDS011;2376;53.544;10.226;2023-08-12T07:59:29;8.03;;;7.13;;
4724;SDS011;2376;53.544;10.226;2023-08-12T08:01:55;10.30;;;7.07;;
4724;SDS011;2376;53.544;10.226;2023-08-12T08:04:22;8.60;;;7.07;;
4724;SDS011;2376;53.544;10.226;2023-08-12T08:06:49;8.50;;;7.63;;
4724;SDS011;2376;53.544;10.226;2023-08-12T08:09:15;9.37;;;8.43;;
4724;SDS011;2376;53.544;10.226;2023-08-12T08:11:42;10.93;;;10.03;;
4724;SDS011;2376;53.544;10.226;2023-08-12T08:14:10;8.53;;;7.87;;
4724;SDS011;2376;53.544;10.226;2023-08-12T08:16:36;8.97;;;8.27;;
4724;SDS011;2376;53.544;10.226;2023-08-12T08:19:05;14.87;;;9.37;;
4724;SDS011;2376;53.544;10.226;2023-08-12T08:21:32;9.73;;;8.80;;
4724;SDS011;2376;53.544;10.226;2023-08-12T08:23:58;8.13;;;7.33;;
4724;SDS011;2376;53.544;10.226;2023-08-12T08:26:25;9.03;;;8.13;;
4724;SDS011;2376;53.544;10.226;2023-08-12T08:28:52;8.57;;;7.87;;
4724;SDS011;2376;53.544;10.226;2023-08-12T08:31:20;9.53;;;8.80;;
4724;SDS011;2376;53.544;10.226;2023-08-12T08:33:46;8.90;;;8.30;;
4724;SDS011;2376;53.544;10.226;2023-08-12T08:36:13;9.00;;;8.40;;
4724;SDS011;2376;53.544;10.226;2023-08-12T08:38:39;10.67;;;8.13;;
4724;SDS011;2376;53.544;10.226;2023-08-12T08:41:06;8.40;;;7.57;;
4724;SDS011;2376;53.544;10.226;2023-08-12T08:43:35;7.90;;;7.10;;
4724;SDS011;2376;53.544;10.226;2023-08-12T08:46:03;8.20;;;7.30;;
4724;SDS011;2376;53.544;10.226;2023-08-12T08:48:32;8.77;;;8.00;;
4724;SDS011;2376;53.544;10.226;2023-08-12T08:50:59;9.53;;;7.00;;
4724;SDS011;2376;53.544;10.226;2023-08-12T08:53:27;7.77;;;7.17;;
4724;SDS011;2376;53.544;10.226;2023-08-12T08:55:53;9.03;;;8.23;;
4724;SDS011;2376;53.544;10.226;2023-08-12T08:58:22;11.70;;;8.10;;
4724;SDS011;2376;53.544;10.226;2023-08-12T09:00:49;8.60;;;7.90;;
4724;SDS011;2376;53.544;10.226;2023-08-12T09:03:16;8.80;;;8.17;;
4724;SDS011;2376;53.544;10.226;2023-08-12T09:05:44;8.50;;;7.60;;
4724;SDS011;2376;53.544;10.226;2023-08-12T09:08:11;10.93;;;7.70;;
4724;SDS011;2376;53.544;10.226;2023-08-12T09:10:38;8.63;;;7.50;;
4724;SDS011;2376;53.544;10.226;2023-08-12T09:13:06;8.03;;;7.17;;
4724;SDS011;2376;53.544;10.226;2023-08-12T09:15:33;7.70;;;7.20;;
4724;SDS011;2376;53.544;10.226;2023-08-12T09:18:00;9.07;;;8.30;;
4724;SDS011;2376;53.544;10.226;2023-08-12T09:20:27;10.40;;;9.50;;
4724;SDS011;2376;53.544;10.226;2023-08-12T09:22:58;8.30;;;7.70;;
4724;SDS011;2376;53.544;10.226;2023-08-12T09:25:26;9.03;;;8.23;;
4724;SDS011;2376;53.544;10.226;2023-08-12T09:27:54;11.17;;;8.77;;
4724;SDS011;2376;53.544;10.226;2023-08-12T09:30:22;9.30;;;8.17;;
4724;SDS011;2376;53.544;10.226;2023-08-12T09:32:57;8.10;;;7.50;;
4724;SDS011;2376;53.544;10.226;2023-08-12T09:35:31;9.60;;;8.10;;
4724;SDS011;2376;53.544;10.226;2023-08-12T09:38:04;7.93;;;7.13;;
4724;SDS011;2376;53.544;10.226;2023-08-12T09:40:32;10.93;;;8.87;;
4724;SDS011;2376;53.544;10.226;2023-08-12T09:43:00;11.53;;;8.53;;
4724;SDS011;2376;53.544;10.226;2023-08-12T09:45:28;10.53;;;9.53;;
4724;SDS011;2376;53.544;10.226;2023-08-12T09:47:55;8.90;;;8.10;;
4724;SDS011;2376;53.544;10.226;2023-08-12T09:50:22;9.10;;;8.27;;
4724;SDS011;2376;53.544;10.226;2023-08-12T09:52:50;9.37;;;8.17;;
4724;SDS011;2376;53.544;10.226;2023-08-12T09:55:20;8.70;;;8.00;;
4724;SDS011;2376;53.544;10.226;2023-08-12T09:57:50;8.30;;;7.53;;
4724;SDS011;2376;53.544;10.226;2023-08-12T10:00:18;10.83;;;9.13;;
4724;SDS011;2376;53.544;10.226;2023-08-12T10:02:46;9.33;;;8.23;;
4724;SDS011;2376;53.544;10.226;2023-08-12T10:05:16;8.83;;;8.10;;
4724;SDS011;2376;53.544;10.226;2023-08-12T10:07:46;8.90;;;8.07;;
4724;SDS011;2376;53.544;10.226;2023-08-12T10:10:13;8.63;;;7.93;;
4724;SDS011;2376;53.544;10.226;2023-08-12T10:12:42;8.83;;;7.83;;
4724;SDS011;2376;53.544;10.226;2023-08-12T10:15:09;11.40;;;10.40;;
4724;SDS011;2376;53.544;10.226;2023-08-12T10:17:36;10.43;;;9.53;;
4724;SDS011;2376;53.544;10.226;2023-08-12T10:20:04;8.63;;;8.03;;
4724;SDS011;2376;53.544;10.226;2023-08-12T10:22:33;8.73;;;8.00;;
4724;SDS011;2376;53.544;10.226;2023-08-12T10:25:02;8.43;;;7.70;;
4724;SDS011;2376;53.544;10.226;2023-08-12T10:27:29;8.90;;;8.13;;
4724;SDS011;2376;53.544;10.226;2023-08-12T10:29:57;10.03;;;8.50;;
4724;SDS011;2376;53.544;10.226;2023-08-12T10:32:24;10.00;;;6.80;;
4724;SDS011;2376;53.544;10.226;2023-08-12T10:34:54;9.50;;;8.60;;
4724;SDS011;2376;53.544;10.226;2023-08-12T10:37:22;7.33;;;6.63;;
4724;SDS011;2376;53.544;10.226;2023-08-12T10:39:51;9.97;;;8.13;;
4724;SDS011;2376;53.544;10.226;2023-08-12T10:42:39;8.47;;;7.73;;
4724;SDS011;2376;53.544;10.226;2023-08-12T10:45:08;7.93;;;7.27;;
4724;SDS011;2376;53.544;10.226;2023-08-12T10:47:39;8.37;;;7.77;;
4724;SDS011;2376;53.544;10.226;2023-08-12T10:50:16;7.80;;;7.00;;
4724;SDS011;2376;53.544;10.226;2023-08-12T10:52:44;7.70;;;7.17;;
4724;SDS011;2376;53.544;10.226;2023-08-12T10:55:18;13.20;;;11.90;;
4724;SDS011;2376;53.544;10.226;2023-08-12T10:57:47;19.00;;;16.53;;
4724;SDS011;2376;53.544;10.226;2023-08-12T11:00:16;11.47;;;10.40;;
4724;SDS011;2376;53.544;10.226;2023-08-12T11:02:48;14.20;;;12.90;;
4724;SDS011;2376;53.544;10.226;2023-08-12T11:05:16;12.10;;;10.57;;
4724;SDS011;2376;53.544;10.226;2023-08-12T11:07:45;11.43;;;9.70;;
4724;SDS011;2376;53.544;10.226;2023-08-12T11:10:14;9.50;;;8.63;;
4724;SDS011;2376;53.544;10.226;2023-08-12T11:12:42;9.13;;;8.43;;
4724;SDS011;2376;53.544;10.226;2023-08-12T11:15:13;9.57;;;8.77;;
4724;SDS011;2376;53.544;10.226;2023-08-12T11:17:42;9.17;;;8.07;;
4724;SDS011;2376;53.544;10.226;2023-08-12T11:20:09;11.13;;;10.13;;
4724;SDS011;2376;53.544;10.226;2023-08-12T11:22:38;10.90;;;8.43;;
4724;SDS011;2376;53.544;10.226;2023-08-12T11:25:07;9.63;;;8.77;;
4724;SDS011;2376;53.544;10.226;2023-08-12T11:27:36;11.87;;;7.30;;
4724;SDS011;2376;53.544;10.226;2023-08-12T11:30:04;8.33;;;7.63;;
4724;SDS011;2376;53.544;10.226;2023-08-12T11:32:34;8.13;;;7.37;;
4724;SDS011;2376;53.544;10.226;2023-08-12T11:35:00;7.30;;;6.80;;
4724;SDS011;2376;53.544;10.226;2023-08-12T11:37:28;7.93;;;7.13;;
4724;SDS011;2376;53.544;10.226;2023-08-12T11:39:55;8.40;;;7.80;;
4724;SDS011;2376;53.544;10.226;2023-08-12T11:45:03;6.80;;;6.20;;
4724;SDS011;2376;53.544;10.226;2023-08-12T11:47:30;5.43;;;4.93;;
4724;SDS011;2376;53.544;10.226;2023-08-12T11:49:59;5.30;;;4.90;;
4724;SDS011;2376;53.544;10.226;2023-08-12T11:52:28;9.60;;;5.00;;
4724;SDS011;2376;53.544;10.226;2023-08-12T11:54:55;5.20;;;4.70;;
4724;SDS011;2376;53.544;10.226;2023-08-12T11:57:23;9.13;;;5.50;;
4724;SDS011;2376;53.544;10.226;2023-08-12T11:59:49;7.37;;;6.80;;
4724;SDS011;2376;53.544;10.226;2023-08-12T12:02:16;6.37;;;5.90;;
4724;SDS011;2376;53.544;10.226;2023-08-12T12:04:43;6.00;;;5.60;;
4724;SDS011;2376;53.544;10.226;2023-08-12T12:07:21;6.20;;;5.70;;
4724;SDS011;2376;53.544;10.226;2023-08-12T12:09:50;6.13;;;5.57;;
4724;SDS011;2376;53.544;10.226;2023-08-12T12:12:18;7.03;;;5.53;;
4724;SDS011;2376;53.544;10.226;2023-08-12T12:14:47;6.87;;;5.80;;
4724;SDS011;2376;53.544;10.226;2023-08-12T12:17:14;14.87;;;7.20;;
4724;SDS011;2376;53.544;10.226;2023-08-12T12:19:41;5.50;;;5.10;;
4724;SDS011;2376;53.544;10.226;2023-08-12T12:22:07;5.33;;;5.00;;
4724;SDS011;2376;53.544;10.226;2023-08-12T12:24:44;5.80;;;5.30;;
4724;SDS011;2376;53.544;10.226;2023-08-12T12:27:12;5.53;;;5.03;;
4724;SDS011;2376;53.544;10.226;2023-08-12T12:29:39;6.30;;;5.80;;
4724;SDS011;2376;53.544;10.226;2023-08-12T12:32:06;6.00;;;5.50;;
4724;SDS011;2376;53.544;10.226;2023-08-12T12:34:33;5.67;;;5.17;;
4724;SDS011;2376;53.544;10.226;2023-08-12T12:37:00;8.17;;;6.30;;
4724;SDS011;2376;53.544;10.226;2023-08-12T12:39:27;6.37;;;5.83;;
4724;SDS011;2376;53.544;10.226;2023-08-12T12:41:55;9.03;;;6.67;;
4724;SDS011;2376;53.544;10.226;2023-08-12T12:44:24;6.13;;;5.60;;
4724;SDS011;2376;53.544;10.226;2023-08-12T12:46:51;7.70;;;6.87;;
4724;SDS011;2376;53.544;10.226;2023-08-12T12:49:18;8.53;;;7.73;;
4724;SDS011;2376;53.544;10.226;2023-08-12T12:51:46;7.87;;;7.27;;
4724;SDS011;2376;53.544;10.226;2023-08-12T12:54:12;8.40;;;7.60;;
4724;SDS011;2376;53.544;10.226;2023-08-12T12:56:39;7.87;;;7.27;;
4724;SDS011;2376;53.544;10.226;2023-08-12T12:59:07;7.57;;;6.97;;
4724;SDS011;2376;53.544;10.226;2023-08-12T13:01:34;8.00;;;6.73;;
4724;SDS011;2376;53.544;10.226;2023-08-12T13:04:00;7.77;;;7.00;;
4724;SDS011;2376;53.544;10.226;2023-08-12T13:06:27;8.50;;;6.93;;
4724;SDS011;2376;53.544;10.226;2023-08-12T13:08:54;8.37;;;7.40;;
4724;SDS011;2376;53.544;10.226;2023-08-12T13:11:21;8.60;;;7.93;;
4724;SDS011;2376;53.544;10.226;2023-08-12T13:13:47;8.90;;;8.10;;
4724;SDS011;2376;53.544;10.226;2023-08-12T13:16:15;8.60;;;7.70;;
4724;SDS011;2376;53.544;10.226;2023-08-12T13:18:42;8.87;;;8.10;;
4724;SDS011;2376;53.544;10.226;2023-08-12T13:21:09;7.50;;;6.90;;
4724;SDS011;2376;53.544;10.226;2023-08-12T13:23:36;8.13;;;7.33;;
4724;SDS011;2376;53.544;10.226;2023-08-12T13:26:02;9.40;;;8.40;;
4724;SDS011;2376;53.544;10.226;2023-08-12T13:28:29;7.73;;;7.13;;
4724;SDS011;2376;53.544;10.226;2023-08-12T13:30:56;9.63;;;7.77;;
4724;SDS011;2376;53.544;10.226;2023-08-12T13:33:24;8.30;;;7.60;;
4724;SDS011;2376;53.544;10.226;2023-08-12T13:35:51;6.57;;;5.93;;
4724;SDS011;2376;53.544;10.226;2023-08-12T13:38:18;8.40;;;7.47;;
4724;SDS011;2376;53.544;10.226;2023-08-12T13:40:44;8.73;;;8.13;;
4724;SDS011;2376;53.544;10.226;2023-08-12T13:43:11;6.97;;;6.33;;
4724;SDS011;2376;53.544;10.226;2023-08-12T13:45:38;8.13;;;7.43;;
4724;SDS011;2376;53.544;10.226;2023-08-12T13:48:04;9.00;;;7.50;;
4724;SDS011;2376;53.544;10.226;2023-08-12T13:50:33;10.00;;;9.10;;
4724;SDS011;2376;53.544;10.226;2023-08-12T13:52:59;9.33;;;8.43;;
4724;SDS011;2376;53.544;10.226;2023-08-12T13:55:26;8.77;;;8.07;;
4724;SDS011;2376;53.544;10.226;2023-08-12T13:57:53;10.43;;;9.23;;
4724;SDS011;2376;53.544;10.226;2023-08-12T14:00:20;9.20;;;8.60;;
4724;SDS011;2376;53.544;10.226;2023-08-12T14:02:49;10.50;;;9.30;;
4724;SDS011;2376;53.544;10.226;2023-08-12T14:05:15;11.03;;;10.10;;
4724;SDS011;2376;53.544;10.226;2023-08-12T14:07:44;10.87;;;9.93;;
4724;SDS011;2376;53.544;10.226;2023-08-12T14:10:10;11.87;;;10.90;;
4724;SDS011;2376;53.544;10.226;2023-08-12T14:12:37;12.47;;;11.43;;
4724;SDS011;2376;53.544;10.226;2023-08-12T14:15:04;11.33;;;9.00;;
4724;SDS011;2376;53.544;10.226;2023-08-12T14:17:31;10.93;;;9.77;;
4724;SDS011;2376;53.544;10.226;2023-08-12T14:19:58;10.50;;;9.50;;
4724;SDS011;2376;53.544;10.226;2023-08-12T14:22:24;9.70;;;8.93;;
4724;SDS011;2376;53.544;10.226;2023-08-12T14:24:52;11.13;;;9.50;;
4724;SDS011;2376;53.544;10.226;2023-08-12T14:27:19;10.33;;;9.43;;
4724;SDS011;2376;53.544;10.226;2023-08-12T14:29:46;10.00;;;9.23;;
4724;SDS011;2376;53.544;10.226;2023-08-12T14:32:13;10.27;;;9.30;;
4724;SDS011;2376;53.544;10.226;2023-08-12T14:34:41;11.10;;;10.20;;
4724;SDS011;2376;53.544;10.226;2023-08-12T14:37:10;12.53;;;11.33;;
4724;SDS011;2376;53.544;10.226;2023-08-12T14:39:36;18.07;;;12.00;;
4724;SDS011;2376;53.544;10.226;2023-08-12T14:42:05;10.60;;;9.70;;
4724;SDS011;2376;53.544;10.226;2023-08-12T14:44:33;12.63;;;11.53;;
4724;SDS011;2376;53.544;10.226;2023-08-12T14:47:00;12.10;;;11.27;;
4724;SDS011;2376;53.544;10.226;2023-08-12T14:49:27;13.30;;;12.10;;
4724;SDS011;2376;53.544;10.226;2023-08-12T14:51:54;13.60;;;12.27;;
4724;SDS011;2376;53.544;10.226;2023-08-12T14:54:21;14.37;;;13.27;;
4724;SDS011;2376;53.544;10.226;2023-08-12T14:56:48;12.97;;;11.67;;
4724;SDS011;2376;53.544;10.226;2023-08-12T14:59:16;12.67;;;11.60;;
4724;SDS011;2376;53.544;10.226;2023-08-12T15:01:43;13.53;;;12.37;;